createdAt,value
2023-03-29T00:00:56.432Z,11.27
2023-03-29T00:03:23.164Z,11.28
2023-03-29T00:05:49.897Z,11.26
2023-03-29T00:08:16.539Z,11.28
2023-03-29T00:10:43.433Z,11.27
2023-03-29T00:13:10.097Z,11.28
2023-03-29T00:15:36.751Z,11.27
2023-03-29T00:18:03.545Z,11.26
2023-03-29T00:20:30.286Z,11.23
2023-03-29T00:22:56.937Z,11.27
2023-03-29T00:25:23.578Z,11.26
2023-03-29T00:27:50.430Z,11.26
2023-03-29T00:30:17.061Z,11.21
2023-03-29T00:32:43.780Z,11.24
2023-03-29T00:35:10.474Z,11.21
2023-03-29T00:37:37.144Z,11.24
2023-03-29T00:40:03.828Z,11.23
2023-03-29T00:42:30.500Z,11.26
2023-03-29T00:44:57.172Z,11.21
2023-03-29T00:47:23.848Z,11.26
2023-03-29T00:49:50.492Z,11.24
2023-03-29T00:52:17.148Z,11.21
2023-03-29T00:54:43.785Z,11.20
2023-03-29T00:57:10.475Z,11.21
2023-03-29T00:59:37.123Z,11.21
2023-03-29T01:02:03.900Z,11.23
2023-03-29T01:04:30.655Z,11.23
2023-03-29T01:06:57.480Z,11.23
2023-03-29T01:09:42.798Z,11.20
2023-03-29T01:14:52.759Z,11.21
2023-03-29T01:17:19.363Z,11.20
2023-03-29T01:19:46.196Z,11.20
2023-03-29T01:22:12.905Z,11.20
2023-03-29T01:24:39.746Z,11.20
2023-03-29T01:27:06.395Z,11.17
2023-03-29T01:29:33.036Z,11.20
2023-03-29T01:31:59.706Z,11.18
2023-03-29T01:34:26.368Z,11.18
2023-03-29T01:36:53.028Z,11.20
2023-03-29T01:39:19.672Z,11.18
2023-03-29T01:41:46.314Z,11.18
2023-03-29T01:44:12.968Z,11.18
2023-03-29T01:46:39.675Z,11.16
2023-03-29T01:49:06.294Z,11.18
2023-03-29T01:51:32.928Z,11.16
2023-03-29T01:53:59.550Z,11.20
2023-03-29T01:56:26.537Z,11.16
2023-03-29T01:58:53.182Z,11.17
2023-03-29T02:01:19.896Z,11.14
2023-03-29T02:03:46.611Z,11.20
2023-03-29T02:06:13.286Z,11.17
2023-03-29T02:08:40.119Z,11.18
2023-03-29T02:11:06.968Z,11.18
2023-03-29T02:13:33.610Z,11.20
2023-03-29T02:16:00.490Z,11.14
2023-03-29T02:18:27.180Z,11.14
2023-03-29T02:20:53.829Z,11.14
2023-03-29T02:23:20.481Z,11.13
2023-03-29T02:25:47.131Z,11.14
2023-03-29T02:28:13.754Z,11.14
2023-03-29T02:30:40.610Z,11.14
2023-03-29T02:33:07.275Z,11.11
2023-03-29T02:35:34.173Z,11.11
2023-03-29T02:38:00.829Z,11.11
2023-03-29T02:40:28.468Z,11.13
2023-03-29T02:42:55.071Z,11.14
2023-03-29T02:45:21.700Z,11.11
2023-03-29T02:47:48.370Z,11.11
2023-03-29T02:50:15.036Z,11.14
2023-03-29T02:52:41.686Z,11.13
2023-03-29T02:55:08.309Z,11.13
2023-03-29T02:57:34.949Z,11.10
2023-03-29T03:00:01.613Z,11.13
2023-03-29T03:02:28.278Z,11.13
2023-03-29T03:04:55.004Z,11.13
2023-03-29T03:07:21.814Z,11.10
2023-03-29T03:09:48.479Z,11.11
2023-03-29T03:12:15.311Z,11.09
2023-03-29T03:14:42.130Z,11.14
2023-03-29T03:17:08.756Z,11.09
2023-03-29T03:19:35.580Z,11.13
2023-03-29T03:22:02.178Z,11.09
2023-03-29T03:24:29.010Z,11.10
2023-03-29T03:26:55.639Z,11.07
2023-03-29T03:29:22.264Z,11.11
2023-03-29T03:31:49.882Z,11.09
2023-03-29T03:34:17.600Z,11.11
2023-03-29T03:36:44.229Z,11.11
2023-03-29T03:39:11.866Z,11.09
2023-03-29T03:41:38.481Z,11.07
2023-03-29T03:44:05.094Z,11.09
2023-03-29T03:46:31.948Z,11.10
2023-03-29T03:48:58.599Z,11.07
2023-03-29T03:51:25.434Z,11.07
2023-03-29T03:53:52.677Z,11.07
2023-03-29T03:56:19.521Z,11.09
2023-03-29T03:58:46.377Z,11.09
2023-03-29T04:01:13.009Z,11.10
2023-03-29T04:03:39.938Z,11.06
2023-03-29T04:06:06.819Z,11.10
2023-03-29T04:08:33.680Z,11.09
2023-03-29T04:11:00.500Z,11.10
2023-03-29T04:13:27.535Z,11.06
2023-03-29T04:15:54.361Z,11.07
2023-03-29T04:18:21.150Z,11.07
2023-03-29T04:20:47.791Z,11.10
2023-03-29T04:23:14.403Z,11.06
2023-03-29T04:25:41.034Z,11.09
2023-03-29T04:28:07.988Z,11.06
2023-03-29T04:30:34.614Z,11.07
2023-03-29T04:33:01.861Z,11.06
2023-03-29T04:35:28.506Z,11.07
2023-03-29T04:37:55.158Z,11.06
2023-03-29T04:40:21.812Z,11.09
2023-03-29T04:42:48.653Z,11.04
2023-03-29T04:45:15.317Z,11.07
2023-03-29T04:47:42.091Z,11.07
2023-03-29T04:50:08.759Z,11.06
2023-03-29T04:52:35.391Z,11.04
2023-03-29T04:55:02.040Z,11.06
2023-03-29T04:57:28.736Z,11.06
2023-03-29T04:59:55.418Z,11.06
2023-03-29T05:02:22.139Z,11.04
2023-03-29T05:04:49.033Z,11.07
2023-03-29T05:07:15.674Z,11.04
2023-03-29T05:09:42.299Z,11.06
2023-03-29T05:12:08.918Z,11.04
2023-03-29T05:14:35.559Z,11.06
2023-03-29T05:17:02.191Z,11.06
2023-03-29T05:19:28.822Z,11.04
2023-03-29T05:21:55.458Z,11.03
2023-03-29T05:24:22.332Z,11.09
2023-03-29T05:26:48.979Z,11.06
2023-03-29T05:29:15.600Z,11.03
2023-03-29T05:31:42.242Z,11.03
2023-03-29T05:34:08.877Z,11.03
2023-03-29T05:36:35.500Z,11.04
2023-03-29T05:39:02.160Z,11.04
2023-03-29T05:41:29.342Z,11.07
2023-03-29T05:43:55.974Z,11.06
2023-03-29T05:46:22.766Z,11.07
2023-03-29T05:48:49.664Z,11.04
2023-03-29T05:51:16.506Z,11.04
2023-03-29T05:53:43.132Z,11.03
2023-03-29T05:56:09.769Z,11.06
2023-03-29T05:58:36.376Z,11.03
2023-03-29T06:01:04.309Z,11.04
2023-03-29T06:03:32.210Z,11.03
2023-03-29T06:05:59.502Z,11.03
2023-03-29T06:08:26.132Z,11.03
2023-03-29T06:10:52.773Z,11.04
2023-03-29T06:13:19.408Z,11.00
2023-03-29T06:15:46.289Z,11.01
2023-03-29T06:18:13.024Z,11.09
2023-03-29T06:20:39.674Z,11.03
2023-03-29T06:23:06.558Z,11.06
2023-03-29T06:25:33.181Z,11.04
2023-03-29T06:28:00.312Z,11.04
2023-03-29T06:30:27.483Z,11.04
2023-03-29T06:32:54.244Z,11.06
2023-03-29T06:35:20.922Z,11.04
2023-03-29T06:37:47.536Z,11.04
2023-03-29T06:40:14.159Z,11.04
2023-03-29T06:42:41.276Z,11.04
2023-03-29T06:45:09.414Z,11.03
2023-03-29T06:47:37.539Z,11.04
2023-03-29T06:50:04.202Z,11.06
2023-03-29T06:52:31.334Z,11.04
2023-03-29T06:54:57.992Z,11.06
2023-03-29T06:57:24.699Z,11.06
2023-03-29T06:59:51.374Z,11.03
2023-03-29T07:02:19.206Z,11.04
2023-03-29T07:04:45.909Z,11.06
2023-03-29T07:07:12.507Z,11.09
2023-03-29T07:09:39.131Z,11.07
2023-03-29T07:12:06.021Z,11.07
2023-03-29T07:14:32.647Z,11.09
2023-03-29T07:17:02.742Z,11.07
2023-03-29T07:19:29.343Z,11.10
2023-03-29T07:21:55.967Z,11.07
2023-03-29T07:24:23.332Z,11.10
2023-03-29T07:27:03.118Z,11.09
2023-03-29T07:29:31.029Z,11.09
2023-03-29T07:31:57.662Z,11.10
2023-03-29T07:34:24.383Z,11.11
2023-03-29T07:36:51.085Z,11.13
2023-03-29T07:39:17.725Z,11.13
2023-03-29T07:41:44.357Z,11.14
2023-03-29T07:44:10.983Z,11.14
2023-03-29T07:46:37.628Z,11.10
2023-03-29T07:49:05.051Z,11.13
2023-03-29T07:51:31.735Z,11.13
2023-03-29T07:53:58.437Z,11.13
2023-03-29T07:56:25.051Z,11.16
2023-03-29T07:58:51.715Z,11.13
2023-03-29T08:01:19.619Z,11.16
2023-03-29T08:03:46.774Z,11.17
2023-03-29T08:06:13.445Z,11.14
2023-03-29T08:08:40.072Z,11.18
2023-03-29T08:11:06.701Z,11.14
2023-03-29T08:13:33.326Z,11.16
2023-03-29T08:15:59.940Z,11.18
2023-03-29T08:18:26.593Z,11.18
2023-03-29T08:20:53.235Z,11.18
2023-03-29T08:23:19.863Z,11.23
2023-03-29T08:25:46.508Z,11.20
2023-03-29T08:28:13.130Z,11.20
2023-03-29T08:30:39.772Z,11.20
2023-03-29T08:33:06.479Z,11.21
2023-03-29T08:35:33.194Z,11.20
2023-03-29T08:37:59.828Z,11.24
2023-03-29T08:40:26.455Z,11.23
2023-03-29T08:42:54.337Z,11.21
2023-03-29T08:45:20.961Z,11.26
2023-03-29T08:47:47.613Z,11.24
2023-03-29T08:50:14.232Z,11.26
2023-03-29T08:52:40.859Z,11.26
2023-03-29T08:55:07.473Z,11.28
2023-03-29T08:57:34.115Z,11.27
2023-03-29T09:00:00.755Z,11.30
2023-03-29T09:02:27.442Z,11.28
2023-03-29T09:04:54.102Z,11.30
2023-03-29T09:07:20.728Z,11.28
2023-03-29T09:09:47.372Z,11.28
2023-03-29T09:12:14.026Z,11.34
2023-03-29T09:14:40.649Z,11.32
2023-03-29T09:17:07.344Z,11.35
2023-03-29T09:19:33.969Z,11.35
2023-03-29T09:22:00.611Z,11.34
2023-03-29T09:24:27.218Z,11.31
2023-03-29T09:26:53.856Z,11.37
2023-03-29T09:29:20.665Z,11.35
2023-03-29T09:31:47.404Z,11.32
2023-03-29T09:34:15.696Z,11.35
2023-03-29T09:36:42.527Z,11.31
2023-03-29T09:39:09.144Z,11.35
2023-03-29T09:41:35.783Z,11.35
2023-03-29T09:44:02.405Z,11.35
2023-03-29T09:46:29.028Z,11.35
2023-03-29T09:48:55.648Z,11.31
2023-03-29T09:51:22.359Z,11.34
2023-03-29T09:53:48.996Z,11.35
2023-03-29T09:56:15.648Z,11.32
2023-03-29T09:58:42.292Z,11.34
2023-03-29T10:01:08.966Z,11.34
2023-03-29T10:03:35.637Z,11.34
2023-03-29T10:06:02.325Z,11.31
2023-03-29T10:08:29.109Z,11.35
2023-03-29T10:10:55.754Z,11.34
2023-03-29T10:13:22.392Z,11.32
2023-03-29T10:15:49.034Z,11.32
2023-03-29T10:18:15.646Z,11.31
2023-03-29T10:20:42.263Z,11.34
2023-03-29T10:23:08.860Z,11.31
2023-03-29T10:25:35.645Z,11.32
2023-03-29T10:28:02.262Z,11.34
2023-03-29T10:30:28.896Z,11.35
2023-03-29T10:32:55.631Z,11.35
2023-03-29T10:35:22.304Z,11.37
2023-03-29T10:37:48.931Z,11.35
2023-03-29T10:40:15.531Z,11.35
2023-03-29T10:42:42.173Z,11.38
2023-03-29T10:45:08.810Z,11.32
2023-03-29T10:47:35.548Z,11.40
2023-03-29T10:50:02.210Z,11.40
2023-03-29T10:52:28.838Z,11.40
2023-03-29T10:54:55.444Z,11.42
2023-03-29T10:57:22.872Z,11.40
2023-03-29T10:59:49.600Z,11.41
2023-03-29T11:02:16.233Z,11.41
2023-03-29T11:04:42.857Z,11.42
2023-03-29T11:07:09.470Z,11.41
2023-03-29T11:09:36.086Z,11.42
2023-03-29T11:12:14.869Z,11.44
2023-03-29T11:14:42.870Z,11.40
2023-03-29T11:17:09.524Z,11.44
2023-03-29T11:19:36.165Z,11.41
2023-03-29T11:22:03.028Z,11.45
2023-03-29T11:24:29.692Z,11.41
2023-03-29T11:26:56.503Z,11.45
2023-03-29T11:29:23.111Z,11.42
2023-03-29T11:31:49.789Z,11.42
2023-03-29T11:34:16.429Z,11.44
2023-03-29T11:36:43.051Z,11.41
2023-03-29T11:39:09.687Z,11.45
2023-03-29T11:41:36.326Z,11.44
2023-03-29T11:44:02.988Z,11.48
2023-03-29T11:46:29.707Z,11.50
2023-03-29T11:48:56.419Z,11.45
2023-03-29T11:51:23.087Z,11.48
2023-03-29T11:53:49.718Z,11.50
2023-03-29T11:56:16.356Z,11.50
2023-03-29T11:58:43.168Z,11.51
2023-03-29T12:01:09.806Z,11.50
2023-03-29T12:03:36.695Z,11.52
2023-03-29T12:06:03.398Z,11.48
2023-03-29T12:08:30.187Z,11.48
2023-03-29T12:10:56.840Z,11.48
2023-03-29T12:13:23.682Z,11.50
2023-03-29T12:15:50.297Z,11.51
2023-03-29T12:18:16.922Z,11.48
2023-03-29T12:20:43.536Z,11.55
2023-03-29T12:23:10.144Z,11.51
2023-03-29T12:25:36.804Z,11.55
2023-03-29T12:28:03.438Z,11.58
2023-03-29T12:30:30.530Z,11.55
2023-03-29T12:32:58.236Z,11.59
2023-03-29T12:35:24.890Z,11.58
2023-03-29T12:37:51.544Z,11.61
2023-03-29T12:40:18.186Z,11.62
2023-03-29T12:42:44.831Z,11.61
2023-03-29T12:45:11.474Z,11.64
2023-03-29T12:47:38.157Z,11.68
2023-03-29T12:50:04.840Z,11.67
2023-03-29T12:52:31.573Z,11.68
2023-03-29T12:54:58.406Z,11.67
2023-03-29T12:57:25.096Z,11.72
2023-03-29T12:59:51.916Z,11.72
2023-03-29T13:02:18.611Z,11.74
2023-03-29T13:04:45.416Z,11.74
2023-03-29T13:07:12.077Z,11.79
2023-03-29T13:09:38.720Z,11.79
2023-03-29T13:12:05.352Z,11.79
2023-03-29T13:14:31.987Z,11.79
2023-03-29T13:17:03.400Z,11.81
2023-03-29T13:19:35.356Z,11.77
2023-03-29T13:22:01.993Z,11.81
2023-03-29T13:24:28.599Z,11.83
2023-03-29T13:26:55.207Z,11.86
2023-03-29T13:29:21.836Z,11.93
2023-03-29T13:31:48.672Z,11.92
2023-03-29T13:34:15.349Z,11.86
2023-03-29T13:36:41.977Z,11.86
2023-03-29T13:39:08.621Z,11.85
2023-03-29T13:41:35.259Z,11.81
2023-03-29T13:44:01.894Z,11.81
2023-03-29T13:46:28.552Z,11.79
2023-03-29T13:48:55.236Z,11.81
2023-03-29T13:51:21.919Z,11.82
2023-03-29T13:53:48.563Z,11.82
2023-03-29T13:56:15.242Z,11.85
2023-03-29T13:58:42.037Z,11.86
2023-03-29T14:01:08.716Z,11.93
2023-03-29T14:03:35.563Z,12.15
2023-03-29T14:06:02.447Z,12.22
2023-03-29T14:08:29.462Z,12.15
2023-03-29T14:10:56.215Z,12.16
2023-03-29T14:13:23.026Z,12.15
2023-03-29T14:15:49.656Z,12.26
2023-03-29T14:18:16.544Z,12.34
2023-03-29T14:20:43.225Z,12.44
2023-03-29T14:23:09.850Z,12.59
2023-03-29T14:25:36.495Z,12.68
2023-03-29T14:28:03.107Z,12.73
2023-03-29T14:30:29.736Z,12.74
2023-03-29T14:32:56.401Z,12.77
2023-03-29T14:35:23.700Z,12.77
2023-03-29T14:37:50.853Z,12.80
2023-03-29T14:40:18.533Z,12.67
2023-03-29T14:42:45.162Z,12.64
2023-03-29T14:45:11.813Z,12.71
2023-03-29T14:47:38.461Z,12.71
2023-03-29T14:50:05.311Z,12.64
2023-03-29T14:52:31.943Z,12.59
2023-03-29T14:54:58.727Z,12.53
2023-03-29T14:57:25.425Z,12.50
2023-03-29T14:59:52.256Z,12.51
2023-03-29T15:02:18.881Z,12.50
2023-03-29T15:04:45.708Z,12.47
2023-03-29T15:07:12.339Z,12.47
2023-03-29T15:09:39.171Z,12.47
2023-03-29T15:12:05.837Z,12.44
2023-03-29T15:14:32.543Z,12.37
2023-03-29T15:16:59.185Z,12.36
2023-03-29T15:19:28.790Z,12.34
2023-03-29T15:21:55.446Z,12.34
2023-03-29T15:24:22.061Z,12.32
2023-03-29T15:26:48.681Z,12.29
2023-03-29T15:29:15.292Z,12.33
2023-03-29T15:31:42.107Z,12.26
2023-03-29T15:34:09.589Z,12.23
2023-03-29T15:36:36.454Z,12.22
2023-03-29T15:39:03.092Z,12.18
2023-03-29T15:41:29.733Z,12.15
2023-03-29T15:43:56.358Z,12.15
2023-03-29T15:46:22.962Z,12.12
2023-03-29T15:48:49.610Z,12.10
2023-03-29T15:51:16.425Z,12.05
2023-03-29T15:53:43.039Z,12.06
2023-03-29T15:56:09.651Z,12.05
2023-03-29T15:58:36.314Z,12.00
2023-03-29T16:01:02.967Z,11.96
2023-03-29T16:03:29.637Z,11.99
2023-03-29T16:05:56.239Z,11.98
2023-03-29T16:08:22.849Z,11.91
2023-03-29T16:10:49.540Z,11.92
2023-03-29T16:13:16.176Z,11.91
2023-03-29T16:15:42.822Z,11.85
2023-03-29T16:18:09.626Z,11.85
2023-03-29T16:20:36.249Z,11.83
2023-03-29T16:23:02.898Z,11.82
2023-03-29T16:25:29.552Z,11.79
2023-03-29T16:27:56.213Z,11.78
2023-03-29T16:30:22.833Z,11.78
2023-03-29T16:32:49.462Z,11.78
2023-03-29T16:35:16.110Z,11.75
2023-03-29T16:37:42.720Z,11.74
2023-03-29T16:40:09.332Z,11.71
2023-03-29T16:42:35.965Z,11.69
2023-03-29T16:45:02.625Z,11.72
2023-03-29T16:47:29.268Z,11.68
2023-03-29T16:49:56.016Z,11.65
2023-03-29T16:52:22.681Z,11.64
2023-03-29T16:54:49.303Z,11.64
2023-03-29T16:57:15.937Z,11.62
2023-03-29T16:59:42.869Z,11.62
2023-03-29T17:02:09.518Z,11.61
2023-03-29T17:04:36.218Z,11.58
2023-03-29T17:07:02.874Z,11.55
2023-03-29T17:09:29.928Z,11.54
2023-03-29T17:11:56.710Z,11.54
2023-03-29T17:14:23.330Z,11.54
2023-03-29T17:16:50.020Z,11.51
2023-03-29T17:19:16.654Z,11.51
2023-03-29T17:21:43.511Z,11.50
2023-03-29T17:24:10.133Z,11.48
2023-03-29T17:26:36.744Z,11.50
2023-03-29T17:29:03.368Z,11.48
2023-03-29T17:31:30.045Z,11.47
2023-03-29T17:33:56.934Z,11.44
2023-03-29T17:36:23.620Z,11.44
2023-03-29T17:38:50.289Z,11.44
2023-03-29T17:41:16.933Z,11.44
2023-03-29T17:43:43.544Z,11.41
2023-03-29T17:46:10.215Z,11.41
2023-03-29T17:48:36.880Z,11.38
2023-03-29T17:51:03.718Z,11.38
2023-03-29T17:53:30.404Z,11.38
2023-03-29T17:55:57.023Z,11.35
2023-03-29T17:58:23.636Z,11.34
2023-03-29T18:00:50.311Z,11.35
2023-03-29T18:03:17.108Z,11.32
2023-03-29T18:05:43.731Z,11.34
2023-03-29T18:08:10.586Z,11.31
2023-03-29T18:10:37.205Z,11.30
2023-03-29T18:13:03.831Z,11.31
2023-03-29T18:15:30.459Z,11.32
2023-03-29T18:17:57.109Z,11.30
2023-03-29T18:20:23.766Z,11.28
2023-03-29T18:22:50.408Z,11.27
2023-03-29T18:25:17.266Z,11.26
2023-03-29T18:27:43.900Z,11.27
2023-03-29T18:30:10.507Z,11.27
2023-03-29T18:32:37.179Z,11.23
2023-03-29T18:35:03.814Z,11.26
2023-03-29T18:37:30.421Z,11.23
2023-03-29T18:39:57.039Z,11.23
2023-03-29T18:42:23.878Z,11.21
2023-03-29T18:44:50.505Z,11.18
2023-03-29T18:47:17.139Z,11.18
2023-03-29T18:49:43.775Z,11.18
2023-03-29T18:52:10.421Z,11.16
2023-03-29T18:54:37.044Z,11.17
2023-03-29T18:57:03.748Z,11.16
2023-03-29T18:59:30.632Z,11.14
2023-03-29T19:01:57.337Z,11.13
2023-03-29T19:04:26.398Z,11.14
2023-03-29T19:06:53.542Z,11.16
2023-03-29T19:09:20.179Z,11.13
2023-03-29T19:11:46.862Z,11.13
2023-03-29T19:14:13.521Z,11.11
2023-03-29T19:16:42.772Z,11.13
2023-03-29T19:19:09.551Z,11.14
2023-03-29T19:21:36.182Z,11.10
2023-03-29T19:24:02.836Z,11.09
2023-03-29T19:26:29.492Z,11.09
2023-03-29T19:28:56.124Z,11.10
2023-03-29T19:31:22.772Z,11.10
2023-03-29T19:33:49.635Z,11.07
2023-03-29T19:36:16.257Z,11.09
2023-03-29T19:38:42.924Z,11.07
2023-03-29T19:41:09.579Z,11.06
2023-03-29T19:43:36.210Z,11.07
2023-03-29T19:46:03.131Z,11.04
2023-03-29T19:48:29.933Z,11.04
2023-03-29T19:50:56.572Z,11.04
2023-03-29T19:53:23.301Z,11.04
2023-03-29T19:55:49.949Z,11.04
2023-03-29T19:58:16.554Z,11.04
2023-03-29T20:00:43.173Z,11.03
2023-03-29T20:03:10.109Z,11.03
2023-03-29T20:05:37.048Z,11.00
2023-03-29T20:08:03.920Z,11.01
2023-03-29T20:10:30.573Z,11.00
2023-03-29T20:12:57.219Z,11.00
2023-03-29T20:15:23.885Z,11.01
2023-03-29T20:17:50.604Z,11.00
2023-03-29T20:20:17.328Z,11.00
2023-03-29T20:22:43.968Z,11.00
2023-03-29T20:25:10.641Z,10.97
2023-03-29T20:27:37.280Z,10.97
2023-03-29T20:30:03.921Z,10.97
2023-03-29T20:32:30.590Z,10.96
2023-03-29T20:34:57.452Z,10.96
2023-03-29T20:37:24.071Z,10.95
2023-03-29T20:39:50.692Z,10.96
2023-03-29T20:42:17.333Z,10.95
2023-03-29T20:44:43.976Z,10.93
2023-03-29T20:47:10.628Z,10.95
2023-03-29T20:49:37.491Z,10.95
2023-03-29T20:52:04.305Z,10.96
2023-03-29T20:54:30.919Z,10.93
2023-03-29T20:56:57.849Z,10.93
2023-03-29T20:59:24.524Z,10.90
2023-03-29T21:01:51.175Z,10.95
2023-03-29T21:04:17.814Z,10.95
2023-03-29T21:06:44.431Z,10.95
2023-03-29T21:09:11.075Z,10.93
2023-03-29T21:11:37.738Z,10.92
2023-03-29T21:14:04.352Z,10.93
2023-03-29T21:16:31.138Z,10.92
2023-03-29T21:18:58.118Z,10.90
2023-03-29T21:21:24.779Z,10.92
2023-03-29T21:23:51.399Z,10.90
2023-03-29T21:26:18.036Z,10.90
2023-03-29T21:28:44.677Z,10.89
2023-03-29T21:31:11.361Z,10.89
2023-03-29T21:33:38.008Z,10.90
2023-03-29T21:36:04.709Z,10.89
2023-03-29T21:38:31.346Z,10.87
2023-03-29T21:40:57.950Z,10.86
2023-03-29T21:43:24.819Z,10.89
2023-03-29T21:45:51.460Z,10.87
2023-03-29T21:48:18.137Z,10.84
2023-03-29T21:50:44.770Z,10.86
2023-03-29T21:53:11.380Z,10.84
2023-03-29T21:55:38.018Z,10.83
2023-03-29T21:58:04.659Z,10.84
2023-03-29T22:00:31.564Z,10.86
2023-03-29T22:02:58.224Z,10.84
2023-03-29T22:05:24.884Z,10.84
2023-03-29T22:07:51.530Z,10.86
2023-03-29T22:10:18.140Z,10.83
2023-03-29T22:12:44.773Z,10.84
2023-03-29T22:15:11.433Z,10.81
2023-03-29T22:17:38.121Z,10.83
2023-03-29T22:20:04.734Z,10.81
2023-03-29T22:22:31.366Z,10.83
2023-03-29T22:24:58.023Z,10.83
2023-03-29T22:27:24.860Z,10.80
2023-03-29T22:29:51.469Z,10.80
2023-03-29T22:32:18.277Z,10.81
2023-03-29T22:34:45.002Z,10.77
2023-03-29T22:37:11.622Z,10.79
2023-03-29T22:39:38.234Z,10.80
2023-03-29T22:42:04.899Z,10.80
2023-03-29T22:44:31.529Z,10.80
2023-03-29T22:46:58.240Z,10.79
2023-03-29T22:49:24.880Z,10.77
2023-03-29T22:51:51.803Z,10.77
2023-03-29T22:54:18.454Z,10.79
2023-03-29T22:56:45.115Z,10.79
2023-03-29T22:59:11.780Z,10.80
2023-03-29T23:01:38.433Z,10.80
2023-03-29T23:04:05.101Z,10.76
2023-03-29T23:06:31.791Z,10.76
2023-03-29T23:08:58.639Z,10.76
2023-03-29T23:11:25.250Z,10.77
2023-03-29T23:13:51.869Z,10.77
2023-03-29T23:16:18.534Z,10.76
2023-03-29T23:18:45.203Z,10.75
2023-03-29T23:21:11.876Z,10.75
2023-03-29T23:23:38.604Z,10.76
2023-03-29T23:26:05.469Z,10.76
2023-03-29T23:28:32.099Z,10.73
2023-03-29T23:30:58.722Z,10.75
2023-03-29T23:33:25.369Z,10.76
2023-03-29T23:35:52.064Z,10.73
2023-03-29T23:38:18.735Z,10.70
2023-03-29T23:40:45.340Z,10.70
2023-03-29T23:43:11.952Z,10.70
2023-03-29T23:45:38.582Z,10.75
2023-03-29T23:48:05.271Z,10.73
2023-03-29T23:50:31.953Z,10.73
2023-03-29T23:52:58.602Z,10.72
2023-03-29T23:55:25.230Z,10.72
2023-03-29T23:57:51.848Z,10.72
